Time;durP1;ratioP1;P1;durP2;ratioP2;P2;SDS_P1;SDS_P2;PMS_P1;PMS_P2;Temp;Humidity;BMP_temperature;BMP_pressure;BME280_temperature;BME280_humidity;BME280_pressure;Samples;Min_cycle;Max_cycle;Signal;HPM_P1;HPM_P2
2022/10/01 00:01:14;;;;;;;6.97;5.47;;;;;;;16.08;56.01;100246.31;5051612;28;20545;-70
2022/10/01 00:03:43;;;;;;;6.72;5.65;;;;;;;16.07;56.10;100244.59;5051441;28;20045;-69
2022/10/01 00:06:13;;;;;;;6.68;5.15;;;;;;;16.06;55.93;100243.75;5052943;28;20075;-70
2022/10/01 00:08:41;;;;;;;7.65;4.43;;;;;;;16.04;55.91;100239.50;5052897;28;20044;-69
2022/10/01 00:11:10;;;;;;;6.80;5.85;;;;;;;16.01;55.82;100221.72;5051147;28;20438;-69
2022/10/01 00:13:42;;;;;;;5.75;4.93;;;;;;;15.97;56.22;100223.03;5051904;28;20557;-71
2022/10/01 00:16:12;;;;;;;5.28;4.63;;;;;;;15.93;56.35;100231.63;5052519;28;20037;-69
2022/10/01 00:18:41;;;;;;;7.43;5.53;;;;;;;15.91;56.28;100206.56;5052679;28;20075;-69
2022/10/01 00:21:13;;;;;;;5.15;4.65;;;;;;;15.90;56.08;100205.72;5052521;28;20040;-69
2022/10/01 00:23:45;;;;;;;6.70;4.60;;;;;;;15.90;56.20;100189.47;5051344;28;20095;-70
2022/10/01 00:26:17;;;;;;;6.63;5.10;;;;;;;15.89;56.67;100183.22;5051598;28;20036;-69
2022/10/01 00:28:46;;;;;;;6.35;5.72;;;;;;;15.91;56.69;100195.75;5051330;28;20395;-69
2022/10/01 00:31:14;;;;;;;6.65;5.07;;;;;;;15.92;56.75;100186.63;5051402;28;20037;-69
2022/10/01 00:33:45;;;;;;;7.82;5.03;;;;;;;15.90;56.82;100184.06;5051237;28;20479;-69
2022/10/01 00:36:12;;;;;;;5.65;5.10;;;;;;;15.89;56.62;100169.69;5050952;28;20060;-68
2022/10/01 00:38:39;;;;;;;7.10;4.72;;;;;;;15.88;57.09;100167.97;5050275;28;20384;-69
2022/10/01 00:41:06;;;;;;;6.57;4.97;;;;;;;15.88;57.12;100173.38;5051349;28;20049;-69
2022/10/01 00:43:58;;;;;;;5.97;5.03;;;;;;;15.87;57.05;100165.44;5051140;28;20537;-69
2022/10/01 00:46:39;;;;;;;9.48;4.47;;;;;;;15.85;57.14;100173.72;5051014;28;20061;-70
2022/10/01 00:49:13;;;;;;;8.52;5.18;;;;;;;15.83;57.28;100156.78;5051182;28;20557;-70
2022/10/01 00:51:44;;;;;;;8.40;5.05;;;;;;;15.85;57.41;100162.03;5049908;28;20049;-69
2022/10/01 00:54:15;;;;;;;6.80;4.90;;;;;;;15.85;57.41;100146.63;5051341;28;20045;-70
2022/10/01 00:56:43;;;;;;;5.72;4.63;;;;;;;15.85;57.47;100154.75;5051180;28;20053;-69
2022/10/01 00:59:11;;;;;;;6.30;4.82;;;;;;;15.86;57.56;100169.16;5051017;28;20469;-69
2022/10/01 01:01:38;;;;;;;6.10;4.93;;;;;;;15.87;57.33;100170.84;5050774;28;20114;-70
2022/10/01 01:04:15;;;;;;;6.03;4.90;;;;;;;15.88;57.53;100159.84;5050161;28;20087;-70
2022/10/01 01:06:54;;;;;;;6.60;5.10;;;;;;;15.88;57.44;100159.00;5051044;28;20044;-70
2022/10/01 01:09:24;;;;;;;5.75;5.15;;;;;;;15.87;57.74;100163.56;5050893;28;20036;-70
2022/10/01 01:12:06;;;;;;;6.13;5.07;;;;;;;15.87;57.75;100150.03;5050804;28;20045;-69
2022/10/01 01:15:00;;;;;;;5.20;4.53;;;;;;;15.87;57.88;100146.47;5051300;28;20098;-70
2022/10/01 01:17:39;;;;;;;7.10;5.10;;;;;;;15.85;57.89;100143.94;5049804;28;20044;-70
2022/10/01 01:20:17;;;;;;;6.78;5.18;;;;;;;15.82;57.78;100130.72;5051004;28;20103;-70
2022/10/01 01:22:58;;;;;;;5.03;4.40;;;;;;;15.77;58.08;100127.63;5050873;28;20365;-71
2022/10/01 01:25:35;;;;;;;5.10;4.60;;;;;;;15.76;58.01;100122.38;5051036;28;20041;-71
2022/10/01 01:28:18;;;;;;;7.57;5.20;;;;;;;15.76;58.24;100119.66;5051022;28;20048;-71
2022/10/01 01:30:49;;;;;;;6.20;4.47;;;;;;;15.77;58.01;100097.00;5052153;28;20043;-71
2022/10/01 01:33:19;;;;;;;6.40;4.70;;;;;;;15.77;58.35;100102.41;5054339;28;20045;-71
2022/10/01 01:35:51;;;;;;;5.43;4.93;;;;;;;15.78;58.52;100041.84;5054447;28;20045;-69
2022/10/01 01:38:26;;;;;;;6.40;4.80;;;;;;;15.76;58.39;100014.94;5054465;28;20049;-71
2022/10/01 01:40:57;;;;;;;5.28;4.78;;;;;;;15.73;58.38;99992.75;5054309;28;20045;-72
2022/10/01 01:43:30;;;;;;;7.28;4.38;;;;;;;15.69;58.44;99980.56;5054492;28;20508;-71
2022/10/01 01:46:00;;;;;;;4.70;4.13;;;;;;;15.68;58.76;100011.34;5054410;28;20052;-71
2022/10/01 01:48:29;;;;;;;5.50;4.30;;;;;;;15.66;58.87;100010.66;5054735;28;20431;-71
2022/10/01 01:51:10;;;;;;;4.97;4.47;;;;;;;15.67;58.94;100031.31;5054506;28;20076;-70
2022/10/01 01:53:41;;;;;;;6.63;4.43;;;;;;;15.66;58.93;100040.44;5054247;28;20091;-72
2022/10/01 01:56:08;;;;;;;4.53;4.07;;;;;;;15.65;58.83;100044.16;5054472;28;20495;-70
2022/10/01 01:58:36;;;;;;;5.82;4.18;;;;;;;15.65;59.22;100045.00;5054525;28;20091;-70
2022/10/01 02:01:03;;;;;;;5.13;4.00;;;;;;;15.67;58.96;100053.81;5054181;28;20089;-70
2022/10/01 02:03:33;;;;;;;4.50;3.90;;;;;;;15.69;59.06;100040.97;5054098;28;20044;-70
2022/10/01 02:06:18;;;;;;;4.38;3.47;;;;;;;15.73;59.32;100046.91;5036558;28;20380;-70
2022/10/01 02:09:10;;;;;;;5.70;3.45;;;;;;;15.72;59.16;100047.91;5054078;28;20041;-69
2022/10/01 02:11:49;;;;;;;5.25;3.30;;;;;;;15.70;59.32;100026.41;5054025;28;20053;-69
2022/10/01 02:14:29;;;;;;;4.05;2.88;;;;;;;15.68;59.19;100020.31;5054303;28;20071;-69
2022/10/01 02:17:04;;;;;;;6.10;3.38;;;;;;;15.69;59.61;100003.06;5054347;28;20052;-69
2022/10/01 02:19:47;;;;;;;5.47;3.72;;;;;;;15.70;59.61;100014.75;5052734;28;20473;-69
2022/10/01 02:22:22;;;;;;;4.53;3.03;;;;;;;15.70;59.82;99999.34;5052849;28;20102;-70
2022/10/01 02:24:58;;;;;;;3.97;2.78;;;;;;;15.70;59.56;99998.50;5054874;28;20106;-69
2022/10/01 02:27:32;;;;;;;4.63;2.85;;;;;;;15.68;59.87;99985.13;5054571;28;20053;-70
2022/10/01 02:30:06;;;;;;;3.33;3.03;;;;;;;15.67;59.44;99980.72;5054207;28;20395;-70
2022/10/01 02:32:36;;;;;;;5.43;3.00;;;;;;;15.65;59.51;99982.75;5054169;28;20087;-71
2022/10/01 02:35:08;;;;;;;3.97;3.20;;;;;;;15.63;59.64;99982.06;5054704;28;20041;-70
2022/10/01 02:37:36;;;;;;;3.92;3.00;;;;;;;15.63;60.08;99982.06;5053236;28;20060;-70
2022/10/01 02:40:07;;;;;;;3.22;2.72;;;;;;;15.62;59.87;99961.41;5053365;28;20087;-70
2022/10/01 02:42:36;;;;;;;2.55;2.17;;;;;;;15.62;60.18;99955.16;5053044;28;20271;-71
2022/10/01 02:45:09;;;;;;;2.35;2.10;;;;;;;15.62;60.30;99957.88;5053306;28;20045;-70
2022/10/01 02:47:40;;;;;;;4.80;2.50;;;;;;;15.61;60.00;99959.72;5051896;28;20087;-70
2022/10/01 02:50:08;;;;;;;4.10;2.38;;;;;;;15.62;60.07;99960.56;5053336;28;20033;-71
2022/10/01 02:52:44;;;;;;;2.28;2.03;;;;;;;15.61;60.56;99948.88;5053060;28;20505;-71
2022/10/01 02:55:16;;;;;;;2.58;2.05;;;;;;;15.60;60.43;99951.72;5053391;28;20514;-70
2022/10/01 02:57:42;;;;;;;2.33;2.10;;;;;;;15.62;60.45;99964.13;5053152;28;20495;-70
2022/10/01 03:00:12;;;;;;;2.75;2.05;;;;;;;15.63;60.14;99948.72;5053096;28;20045;-69
2022/10/01 03:02:38;;;;;;;2.88;2.00;;;;;;;15.65;60.53;99960.25;5053049;28;20082;-69
2022/10/01 03:05:06;;;;;;;2.17;1.98;;;;;;;15.65;60.28;99963.78;5053133;28;20053;-69
2022/10/01 03:07:34;;;;;;;2.17;1.98;;;;;;;15.65;60.77;99947.56;5052950;28;20048;-70
2022/10/01 03:10:03;;;;;;;3.72;2.10;;;;;;;15.68;60.93;99949.94;5052628;28;20557;-69
2022/10/01 03:12:30;;;;;;;1.85;1.63;;;;;;;15.69;60.87;99948.91;5052482;28;20037;-70
2022/10/01 03:14:57;;;;;;;2.10;1.67;;;;;;;15.69;60.80;99958.91;5052797;28;20052;-69
2022/10/01 03:17:23;;;;;;;1.88;1.65;;;;;;;15.70;60.51;99941.66;5052901;28;20087;-69
2022/10/01 03:19:50;;;;;;;3.05;1.80;;;;;;;15.71;60.91;99937.94;5052776;28;20041;-70
2022/10/01 03:22:21;;;;;;;2.10;1.42;;;;;;;15.72;60.53;99945.88;5052349;28;20045;-70
2022/10/01 03:24:50;;;;;;;2.72;1.45;;;;;;;15.72;60.75;99953.16;5052783;28;20102;-70
2022/10/01 03:27:18;;;;;;;1.65;1.50;;;;;;;15.73;60.59;99939.47;5052637;28;20507;-69
2022/10/01 03:29:44;;;;;;;1.40;1.17;;;;;;;15.75;61.03;99937.44;5052631;28;20044;-70
2022/10/01 03:32:11;;;;;;;1.63;1.30;;;;;;;15.75;61.00;99925.75;5052261;28;20049;-70
2022/10/01 03:34:39;;;;;;;1.90;1.30;;;;;;;15.77;61.27;99926.44;5052668;28;20037;-69
2022/10/01 03:37:06;;;;;;;1.40;1.30;;;;;;;15.78;60.87;99933.56;5052297;28;20110;-69
2022/10/01 03:39:33;;;;;;;3.10;1.45;;;;;;;15.79;60.98;99917.16;5052363;28;20049;-69
2022/10/01 03:41:59;;;;;;;3.33;1.42;;;;;;;15.81;61.11;99936.78;5052346;28;20134;-69
2022/10/01 03:44:28;;;;;;;1.20;1.08;;;;;;;15.83;61.26;99928.50;5052366;28;20086;-69
2022/10/01 03:46:55;;;;;;;2.30;1.20;;;;;;;15.83;61.23;99925.78;5052744;28;20409;-69
2022/10/01 03:49:22;;;;;;;1.50;1.40;;;;;;;15.82;60.90;99930.34;5052368;28;20049;-69
2022/10/01 03:51:49;;;;;;;3.53;1.20;;;;;;;15.83;60.96;99937.47;5051994;28;20041;-70
2022/10/01 03:54:17;;;;;;;1.10;1.00;;;;;;;15.84;61.32;99938.31;5051795;28;20151;-71
2022/10/01 03:56:43;;;;;;;1.13;1.00;;;;;;;15.82;60.94;99935.78;5052136;28;20053;-70
2022/10/01 03:59:10;;;;;;;1.73;0.93;;;;;;;15.83;61.08;99932.03;5052236;28;20045;-70
2022/10/01 04:01:37;;;;;;;0.98;0.85;;;;;;;15.85;60.96;99931.88;5051978;28;20491;-70
2022/10/01 04:04:06;;;;;;;2.60;1.05;;;;;;;15.84;61.02;99946.44;5050931;28;20051;-70
2022/10/01 04:06:32;;;;;;;1.02;0.93;;;;;;;15.85;61.47;99938.16;5052109;28;20111;-70
2022/10/01 04:08:59;;;;;;;1.17;1.08;;;;;;;15.87;61.31;99941.53;5052392;28;20053;-70
2022/10/01 04:11:25;;;;;;;1.00;0.90;;;;;;;15.92;61.24;99943.75;5052034;28;20072;-70
2022/10/01 04:13:53;;;;;;;1.90;1.08;;;;;;;15.96;61.38;99945.09;5052198;28;20075;-70
2022/10/01 04:16:19;;;;;;;1.35;1.08;;;;;;;15.98;61.13;99951.22;5050801;28;20095;-70
2022/10/01 04:18:46;;;;;;;0.85;0.68;;;;;;;16.02;61.38;99949.88;5051907;28;20140;-70
2022/10/01 04:21:14;;;;;;;1.20;0.90;;;;;;;16.02;61.34;99954.44;5051847;28;20049;-70
2022/10/01 04:23:45;;;;;;;1.27;0.85;;;;;;;16.02;61.09;99951.72;5052190;28;20049;-70
2022/10/01 04:26:11;;;;;;;2.65;1.40;;;;;;;16.03;61.32;99953.41;5050948;28;20041;-70
2022/10/01 04:28:38;;;;;;;1.42;0.80;;;;;;;16.05;61.60;99946.81;5052487;28;20545;-70
2022/10/01 04:31:23;;;;;;;2.92;0.80;;;;;;;16.06;61.71;99953.94;5052052;28;20053;-70
2022/10/01 04:33:55;;;;;;;1.20;0.88;;;;;;;16.09;61.29;99944.63;5052276;28;20041;-69
2022/10/01 04:36:23;;;;;;;1.77;0.60;;;;;;;16.10;61.71;99949.03;5052323;28;20098;-69
2022/10/01 04:38:51;;;;;;;2.33;0.80;;;;;;;16.11;61.41;99943.44;5051305;28;20083;-69
2022/10/01 04:41:20;;;;;;;1.58;0.80;;;;;;;16.14;61.46;99958.53;5051359;28;20067;-69
2022/10/01 04:43:49;;;;;;;1.42;1.00;;;;;;;16.17;61.53;99966.31;5050153;28;20095;-70
2022/10/01 04:46:16;;;;;;;1.20;0.90;;;;;;;16.18;61.49;99960.72;5050964;28;20053;-69
2022/10/01 04:48:43;;;;;;;1.40;0.70;;;;;;;16.19;61.77;99967.84;5051503;28;20041;-70
2022/10/01 04:51:10;;;;;;;1.60;0.90;;;;;;;16.21;61.27;99964.97;5051220;28;20045;-69
2022/10/01 04:53:54;;;;;;;1.85;0.70;;;;;;;16.23;61.72;99967.50;5051237;28;20099;-69
2022/10/01 04:56:21;;;;;;;0.68;0.63;;;;;;;16.27;61.58;99972.44;5051324;28;20071;-69
2022/10/01 04:58:48;;;;;;;1.17;0.70;;;;;;;16.28;61.93;99975.97;5050940;28;20053;-69
2022/10/01 05:01:14;;;;;;;2.80;0.80;;;;;;;16.30;61.48;99985.66;5051062;28;20037;-69
2022/10/01 05:03:43;;;;;;;0.70;0.70;;;;;;;16.33;61.82;99981.75;5051264;28;20037;-70
2022/10/01 05:06:09;;;;;;;1.05;0.70;;;;;;;16.32;61.70;99980.91;5052924;28;20474;-69
2022/10/01 05:08:36;;;;;;;0.85;0.60;;;;;;;16.32;61.79;99980.91;5055020;28;20059;-70
2022/10/01 05:11:03;;;;;;;2.55;0.70;;;;;;;16.33;61.81;99979.03;5055135;28;20477;-70
2022/10/01 05:13:30;;;;;;;1.58;1.10;;;;;;;16.35;61.54;99987.84;5055257;28;20033;-69
2022/10/01 05:16:01;;;;;;;1.17;0.82;;;;;;;16.34;61.68;99978.88;5055993;28;20044;-69
2022/10/01 05:18:29;;;;;;;2.15;0.90;;;;;;;16.36;61.77;99986.88;5054966;28;20064;-70
2022/10/01 05:20:55;;;;;;;1.40;0.73;;;;;;;16.38;62.00;100001.09;5056066;28;20107;-70
2022/10/01 05:23:22;;;;;;;1.25;0.75;;;;;;;16.39;61.67;100006.34;5055344;28;20111;-70
2022/10/01 05:25:50;;;;;;;1.80;0.80;;;;;;;16.41;61.98;100020.59;5055777;28;20487;-70
2022/10/01 05:28:16;;;;;;;0.80;0.80;;;;;;;16.43;61.72;100018.56;5055453;28;20041;-70
2022/10/01 05:30:49;;;;;;;1.60;1.00;;;;;;;16.47;62.10;100017.19;5055903;28;20582;-70
2022/10/01 05:33:16;;;;;;;1.17;0.90;;;;;;;16.49;62.33;100008.91;5054179;28;20045;-69
2022/10/01 05:35:44;;;;;;;1.10;1.00;;;;;;;16.51;62.08;100009.59;5054371;28;20041;-70
2022/10/01 05:38:10;;;;;;;2.13;1.40;;;;;;;16.52;62.38;100022.97;5053972;28;20071;-70
2022/10/01 05:40:37;;;;;;;2.05;1.25;;;;;;;16.55;61.94;100018.22;5053703;28;20045;-70
2022/10/01 05:43:03;;;;;;;1.10;0.90;;;;;;;16.59;62.15;100025.00;5053542;28;20098;-70
2022/10/01 05:45:31;;;;;;;1.10;1.00;;;;;;;16.59;62.12;100031.28;5053604;28;20061;-70
2022/10/01 05:48:00;;;;;;;2.65;1.55;;;;;;;16.60;61.99;100024.84;5053610;28;20135;-69
2022/10/01 05:50:30;;;;;;;1.30;1.17;;;;;;;16.61;62.26;100031.97;5053382;28;20087;-70
2022/10/01 05:52:57;;;;;;;1.40;1.17;;;;;;;16.63;61.96;100035.34;5053293;28;20245;-69
2022/10/01 05:55:23;;;;;;;1.70;1.20;;;;;;;16.65;62.26;100044.19;5053222;28;20041;-69
2022/10/01 05:58:01;;;;;;;1.80;1.35;;;;;;;16.65;61.85;100041.47;5053497;28;20033;-70
2022/10/01 06:00:29;;;;;;;3.53;1.40;;;;;;;16.66;62.06;100048.59;5046717;28;20037;-70
2022/10/01 06:02:59;;;;;;;2.38;1.48;;;;;;;16.70;62.04;100052.69;5051962;28;20095;-70
2022/10/01 06:05:28;;;;;;;2.13;1.52;;;;;;;16.75;62.15;100060.31;5053325;28;20087;-69
2022/10/01 06:07:55;;;;;;;1.60;1.45;;;;;;;16.76;61.96;100062.84;5053135;28;20107;-70
2022/10/01 06:10:23;;;;;;;2.67;1.75;;;;;;;16.79;61.97;100054.38;5053109;28;20471;-69
2022/10/01 06:12:50;;;;;;;2.20;1.63;;;;;;;16.81;62.29;100065.06;5050360;28;20534;-69
2022/10/01 06:15:20;;;;;;;2.63;1.70;;;;;;;16.84;62.21;100062.00;5053284;28;20037;-69
2022/10/01 06:17:47;;;;;;;2.30;1.77;;;;;;;16.86;62.00;100067.25;5052300;28;20041;-69
2022/10/01 06:20:18;;;;;;;2.10;1.80;;;;;;;16.88;62.37;100065.22;5053133;28;20071;-70
2022/10/01 06:22:52;;;;;;;3.60;1.90;;;;;;;16.90;62.28;100063.19;5053046;28;20384;-67
2022/10/01 06:25:20;;;;;;;2.23;2.03;;;;;;;16.90;61.83;100079.47;5053555;28;20037;-67
2022/10/01 06:27:56;;;;;;;3.83;1.92;;;;;;;16.93;62.31;100074.56;5053447;28;20341;-69
2022/10/01 06:30:25;;;;;;;3.10;2.03;;;;;;;16.95;62.58;100077.94;5053045;28;20137;-68
2022/10/01 06:33:02;;;;;;;3.78;2.00;;;;;;;16.97;62.18;100080.50;5053078;28;20045;-68
2022/10/01 06:35:33;;;;;;;3.13;2.53;;;;;;;17.00;62.56;100082.88;5053387;28;20064;-68
2022/10/01 06:38:03;;;;;;;3.00;2.22;;;;;;;17.04;62.19;100081.50;5053083;28;20406;-68
2022/10/01 06:40:30;;;;;;;4.43;2.60;;;;;;;17.05;62.62;100086.75;5052315;28;20041;-69
2022/10/01 06:42:57;;;;;;;3.40;2.72;;;;;;;17.05;62.48;100089.47;5052568;28;20100;-69
2022/10/01 06:45:28;;;;;;;4.35;2.97;;;;;;;17.09;62.49;100092.69;5052555;28;20111;-69
2022/10/01 06:48:02;;;;;;;3.92;2.92;;;;;;;17.10;62.47;100087.13;5052462;28;20140;-69
2022/10/01 06:50:30;;;;;;;5.43;2.95;;;;;;;17.12;62.60;100079.69;5052624;28;20553;-69
2022/10/01 06:52:57;;;;;;;6.00;3.40;;;;;;;17.18;62.60;100096.28;5052365;28;20045;-68
2022/10/01 06:55:28;;;;;;;5.05;3.45;;;;;;;17.21;62.30;100091.38;5052858;28;20094;-68
2022/10/01 06:58:04;;;;;;;5.05;3.78;;;;;;;17.24;62.82;100082.91;5050964;28;20107;-68
2022/10/01 07:00:31;;;;;;;;;;;;;;;17.26;62.13;100083.56;5052948;28;20099;-68
2022/10/01 07:02:58;;;;;;;4.35;3.95;;;;;;;17.32;62.09;100088.31;5052158;28;19921;-68
2022/10/01 07:05:26;;;;;;;4.80;3.78;;;;;;;17.39;62.50;100091.19;5052656;28;20071;-69
2022/10/01 07:07:53;;;;;;;5.57;4.38;;;;;;;17.43;62.70;100096.09;5051953;28;20041;-68
2022/10/01 07:10:22;;;;;;;5.10;4.60;;;;;;;17.46;62.63;100103.06;5052439;28;20098;-69
2022/10/01 07:12:49;;;;;;;5.10;4.30;;;;;;;17.51;62.68;100113.41;5051777;28;20037;-68
2022/10/01 07:15:20;;;;;;;6.18;4.13;;;;;;;17.53;62.48;100114.09;5052148;28;20052;-69
2022/10/01 07:17:49;;;;;;;5.05;4.38;;;;;;;17.56;62.69;100114.59;5051841;28;20048;-69
2022/10/01 07:20:18;;;;;;;5.18;4.22;;;;;;;17.58;62.77;100109.84;5051271;28;20102;-68
2022/10/01 07:22:47;;;;;;;5.90;3.90;;;;;;;17.61;62.57;100111.34;5052307;28;20069;-67
2022/10/01 07:25:14;;;;;;;7.47;4.05;;;;;;;17.64;62.48;100117.28;5051817;28;20079;-70
2022/10/01 07:27:41;;;;;;;5.28;4.30;;;;;;;17.69;62.54;100122.22;5051592;28;20434;-67
2022/10/01 07:30:08;;;;;;;4.70;4.20;;;;;;;17.73;63.11;100120.88;5051047;28;20033;-66
2022/10/01 07:32:34;;;;;;;4.63;4.00;;;;;;;17.83;63.30;100118.81;5051202;28;20045;-67
2022/10/01 07:35:02;;;;;;;10.18;5.50;;;;;;;17.94;63.11;100123.06;5051913;28;20049;-67
2022/10/01 07:37:28;;;;;;;6.63;4.53;;;;;;;18.03;63.17;100130.16;5052007;28;20057;-67
2022/10/01 07:39:55;;;;;;;7.40;5.53;;;;;;;18.10;62.85;100134.72;5051546;28;20087;-67
2022/10/01 07:42:21;;;;;;;5.78;5.28;;;;;;;18.16;63.13;100130.47;5051576;28;20094;-67
2022/10/01 07:44:49;;;;;;;7.78;5.32;;;;;;;18.24;62.64;100130.44;5051913;28;20478;-66
2022/10/01 07:47:16;;;;;;;7.10;6.40;;;;;;;18.31;62.64;100139.56;5051803;28;20095;-67
2022/10/01 07:49:42;;;;;;;9.05;6.40;;;;;;;18.38;62.72;100145.16;5051419;28;20453;-67
2022/10/01 07:52:09;;;;;;;7.35;5.57;;;;;;;18.46;62.64;100145.09;5051464;28;20049;-67
2022/10/01 07:54:39;;;;;;;6.55;5.85;;;;;;;18.52;62.77;100149.00;5051661;28;20423;-67
2022/10/01 07:57:05;;;;;;;9.38;6.60;;;;;;;18.57;62.90;100157.47;5051571;28;20065;-67
2022/10/01 07:59:32;;;;;;;9.70;6.65;;;;;;;18.61;62.37;100167.00;5051293;28;20487;-67
2022/10/01 08:01:59;;;;;;;7.03;6.05;;;;;;;18.64;62.75;100163.94;5051254;28;20446;-67
2022/10/01 08:07:11;;;;;;;8.00;5.93;;;;;;;18.63;62.22;100176.72;5051417;28;20059;-68
2022/10/01 08:09:38;;;;;;;8.02;5.82;;;;;;;18.62;62.28;100174.16;5051415;28;20267;-67
2022/10/01 08:12:05;;;;;;;8.55;6.50;;;;;;;18.62;62.38;100174.16;5051268;28;20094;-67
2022/10/01 08:14:33;;;;;;;10.07;6.70;;;;;;;18.59;62.02;100172.63;5050861;28;20442;-70
2022/10/01 08:17:00;;;;;;;9.07;6.75;;;;;;;18.57;62.10;100180.06;5050046;28;20049;-69
2022/10/01 08:19:26;;;;;;;11.05;7.25;;;;;;;18.56;62.37;100186.53;5049842;28;20499;-69
2022/10/01 08:21:53;;;;;;;10.05;7.95;;;;;;;18.56;62.24;100193.84;5050056;28;20083;-69
2022/10/01 08:24:24;;;;;;;10.38;7.38;;;;;;;18.55;62.16;100195.72;5051110;28;20032;-70
2022/10/01 08:26:54;;;;;;;8.30;7.25;;;;;;;18.57;62.36;100195.53;5050081;28;20037;-70
2022/10/01 08:29:21;;;;;;;7.85;6.82;;;;;;;18.59;62.60;100205.25;5050744;28;20052;-69
2022/10/01 08:31:47;;;;;;;10.02;7.15;;;;;;;18.63;62.91;100212.06;5049890;28;20037;-69
2022/10/01 08:34:19;;;;;;;9.65;7.47;;;;;;;18.68;62.65;100208.81;5050713;28;20052;-69
2022/10/01 08:36:50;;;;;;;6.82;6.07;;;;;;;18.73;62.58;100209.13;5049942;28;20049;-69
2022/10/01 08:39:17;;;;;;;7.88;5.45;;;;;;;18.78;62.80;100216.75;5051082;28;20052;-70
2022/10/01 08:41:52;;;;;;;5.57;4.50;;;;;;;18.79;63.11;100216.59;5053385;28;20399;-69
2022/10/01 08:44:26;;;;;;;5.45;3.75;;;;;;;18.79;62.64;100222.03;5054727;28;20098;-69
2022/10/01 08:46:59;;;;;;;7.28;4.72;;;;;;;18.78;62.47;100217.59;5054536;28;20048;-69
2022/10/01 08:49:33;;;;;;;6.95;5.03;;;;;;;18.76;62.58;100238.69;5054585;28;20403;-70
2022/10/01 08:52:14;;;;;;;10.73;6.43;;;;;;;18.72;62.72;100238.19;5053744;28;20295;-70
2022/10/01 08:54:47;;;;;;;8.57;6.75;;;;;;;18.71;62.64;100227.50;5043759;28;20044;-69
2022/10/01 08:57:37;;;;;;;10.55;8.02;;;;;;;18.72;62.61;100226.47;5054614;28;20050;-69
2022/10/01 09:00:10;;;;;;;12.75;9.57;;;;;;;18.71;62.96;100225.63;5053149;28;20049;-69
2022/10/01 09:02:39;;;;;;;11.73;9.73;;;;;;;18.75;62.89;100228.84;5053788;28;20037;-70
2022/10/01 09:05:24;;;;;;;11.60;9.95;;;;;;;18.79;63.12;100215.72;5054660;28;20340;-69
2022/10/01 09:08:05;;;;;;;11.75;10.07;;;;;;;18.88;63.43;100222.84;5036574;28;20048;-69
2022/10/01 09:10:48;;;;;;;12.40;11.10;;;;;;;18.95;63.37;100231.97;5036368;28;20103;-69
2022/10/01 09:13:59;;;;;;;12.13;10.73;;;;;;;19.05;63.21;100238.03;5051524;28;20084;-69
2022/10/01 09:16:35;;;;;;;13.52;10.52;;;;;;;19.19;63.43;100236.44;5054278;28;20403;-70
2022/10/01 09:19:30;;;;;;;12.32;10.88;;;;;;;19.32;63.82;100240.28;5054353;28;20033;-69
2022/10/01 09:21:57;;;;;;;10.57;9.55;;;;;;;19.48;64.07;100244.78;5054043;28;20457;-69
2022/10/01 09:24:48;;;;;;;12.85;9.88;;;;;;;19.64;63.97;100250.13;5054298;28;20068;-70
2022/10/01 09:27:20;;;;;;;11.05;8.95;;;;;;;19.78;63.71;100250.38;5053468;28;20047;-69
2022/10/01 09:30:06;;;;;;;10.25;8.70;;;;;;;19.91;63.88;100256.88;5052608;28;20061;-69
2022/10/01 09:32:45;;;;;;;11.48;7.90;;;;;;;20.07;63.59;100263.25;5053801;28;20049;-69
2022/10/01 09:35:22;;;;;;;8.40;7.15;;;;;;;20.20;63.33;100266.19;5053957;28;20037;-68
2022/10/01 09:38:01;;;;;;;7.07;6.38;;;;;;;20.30;63.41;100256.72;5052934;28;20049;-68
2022/10/01 09:40:45;;;;;;;8.88;5.60;;;;;;;20.44;63.21;100259.66;5053924;28;20103;-67
2022/10/01 09:43:11;;;;;;;7.65;5.40;;;;;;;20.55;63.28;100270.13;5052328;28;20079;-69
2022/10/01 09:45:39;;;;;;;9.43;5.63;;;;;;;20.58;62.70;100275.19;5053633;28;20052;-70
2022/10/01 09:48:25;;;;;;;11.15;5.97;;;;;;;20.60;62.67;100275.84;5053142;28;20120;-70
2022/10/01 09:50:57;;;;;;;13.45;6.32;;;;;;;20.66;62.37;100280.56;5051867;28;20045;-71
2022/10/01 09:53:35;;;;;;;7.00;4.72;;;;;;;20.71;61.93;100269.94;5053254;28;20399;-70
2022/10/01 09:56:41;;;;;;;9.35;4.65;;;;;;;20.72;61.71;100276.22;5036747;28;20049;-70
2022/10/01 09:59:16;;;;;;;7.82;3.83;;;;;;;20.71;61.62;100272.66;5053251;28;20441;-69
2022/10/01 10:01:50;;;;;;;6.75;4.13;;;;;;;20.73;61.07;100280.66;5052893;28;20041;-70
2022/10/01 10:04:22;;;;;;;7.30;3.38;;;;;;;20.72;61.13;100281.69;5053526;28;20044;-70
2022/10/01 10:07:00;;;;;;;7.40;4.03;;;;;;;20.72;60.73;100278.97;5051834;28;20052;-70
2022/10/01 10:09:32;;;;;;;9.10;3.33;;;;;;;20.73;60.81;100281.50;5053031;28;20041;-69
2022/10/01 10:11:59;;;;;;;7.53;3.50;;;;;;;20.73;60.74;100283.38;5052420;28;20087;-70
2022/10/01 10:14:34;;;;;;;7.88;2.83;;;;;;;20.72;60.31;100289.88;5052323;28;20052;-71
2022/10/01 10:17:10;;;;;;;9.98;3.10;;;;;;;20.73;60.48;100286.97;5052845;28;20087;-70
2022/10/01 10:19:37;;;;;;;9.18;2.78;;;;;;;20.73;60.08;100289.69;5052617;28;20076;-70
2022/10/01 10:22:22;;;;;;;7.97;2.25;;;;;;;20.71;60.15;100299.94;5052242;28;20087;-72
2022/10/01 10:24:49;;;;;;;8.93;2.60;;;;;;;20.70;60.25;100291.94;5053083;28;20095;-71
2022/10/01 10:27:25;;;;;;;11.60;2.53;;;;;;;20.68;60.19;100313.13;5051273;28;20132;-70
2022/10/01 10:30:12;;;;;;;9.20;2.38;;;;;;;20.63;59.91;100306.34;5052801;28;20079;-71
2022/10/01 10:32:40;;;;;;;10.90;2.25;;;;;;;20.56;59.67;100312.72;5050834;28;20556;-70
2022/10/01 10:35:12;;;;;;;8.32;2.03;;;;;;;20.46;59.30;100323.06;5052753;28;20095;-71
2022/10/01 10:37:53;;;;;;;6.53;1.58;;;;;;;20.38;59.19;100332.16;5052650;28;20049;-72
2022/10/01 10:40:23;;;;;;;6.57;1.80;;;;;;;20.37;58.94;100335.06;5051589;28;20053;-70
2022/10/01 10:42:57;;;;;;;11.30;2.15;;;;;;;20.43;59.13;100331.63;5052348;28;20037;-70
2022/10/01 10:45:32;;;;;;;7.95;2.20;;;;;;;20.55;59.20;100332.88;5051978;28;20056;-70
2022/10/01 10:48:00;;;;;;;7.22;2.05;;;;;;;20.68;59.50;100341.25;5052550;28;20044;-71
2022/10/01 10:50:31;;;;;;;8.52;2.38;;;;;;;20.84;59.42;100356.63;5052204;28;20400;-71
2022/10/01 10:52:58;;;;;;;8.40;2.10;;;;;;;20.97;59.15;100339.59;5050354;28;20029;-71
2022/10/01 10:55:29;;;;;;;7.85;2.08;;;;;;;21.07;58.70;100351.06;5052206;28;20504;-71
2022/10/01 10:58:10;;;;;;;10.02;2.35;;;;;;;21.21;58.32;100353.78;5052333;28;20522;-69
2022/10/01 11:00:45;;;;;;;8.70;2.22;;;;;;;21.37;58.22;100360.97;5052408;28;20555;-71
2022/10/01 11:03:14;;;;;;;9.82;2.10;;;;;;;21.48;57.68;100356.91;5051750;28;20071;-71
2022/10/01 11:05:42;;;;;;;8.63;1.77;;;;;;;21.56;57.61;100368.59;5052016;28;20033;-71
2022/10/01 11:08:17;;;;;;;12.73;2.13;;;;;;;21.64;56.93;100362.16;5051623;28;20111;-70
2022/10/01 11:11:01;;;;;;;7.40;1.83;;;;;;;21.69;56.44;100358.84;5051752;28;20102;-69
2022/10/01 11:13:42;;;;;;;10.23;2.05;;;;;;;21.69;56.24;100369.78;5051482;28;20045;-70
2022/10/01 11:16:17;;;;;;;6.65;2.22;;;;;;;21.74;56.21;100370.06;5051024;28;20103;-70
2022/10/01 11:18:44;;;;;;;;;;;;;;;21.84;56.23;100378.78;5052207;28;20495;-71
2022/10/01 11:21:40;;;;;;;5.82;1.98;;;;;;;21.94;55.90;100375.72;5051519;28;19920;-71
2022/10/01 11:24:32;;;;;;;8.60;1.80;;;;;;;21.95;55.44;100380.16;5049655;28;20094;-73
2022/10/01 11:27:39;;;;;;;8.13;1.77;;;;;;;21.92;55.04;100384.13;5050597;28;20063;-71
2022/10/01 11:30:14;;;;;;;10.55;2.03;;;;;;;21.93;55.07;100395.91;5048095;28;20138;-72
2022/10/01 11:32:46;;;;;;;7.60;2.17;;;;;;;21.97;54.76;100397.22;5051979;28;20479;-71
2022/10/01 11:35:38;;;;;;;10.52;2.30;;;;;;;22.01;54.51;100395.78;5051047;28;20045;-71
2022/10/01 11:38:17;;;;;;;7.75;1.95;;;;;;;22.05;54.44;100399.88;5049955;28;20037;-72
2022/10/01 11:40:59;;;;;;;7.97;1.50;;;;;;;22.07;53.78;100401.38;5050977;28;20560;-73
2022/10/01 11:43:36;;;;;;;6.18;1.73;;;;;;;22.14;53.49;100406.91;5050464;28;20052;-73
2022/10/01 11:46:36;;;;;;;5.13;1.80;;;;;;;22.22;53.54;100412.25;5050237;28;20422;-73
2022/10/01 11:49:13;;;;;;;7.82;2.08;;;;;;;22.30;53.12;100411.28;5051179;28;20041;-70
2022/10/01 11:51:48;;;;;;;10.73;1.77;;;;;;;22.40;53.33;100411.81;5050740;28;20045;-71